sensor_id;sensor_type;location;lat;lon;timestamp;P1;durP1;ratioP1;P2;durP2;ratioP2
9459;SDS011;4768;42.664;23.240;2022-12-08T00:00:27;49.27;;;28.10;;
9459;SDS011;4768;42.664;23.240;2022-12-08T00:02:53;58.20;;;28.50;;
9459;SDS011;4768;42.664;23.240;2022-12-08T00:05:20;51.87;;;28.13;;
9459;SDS011;4768;42.664;23.240;2022-12-08T00:08:07;49.03;;;26.27;;
9459;SDS011;4768;42.664;23.240;2022-12-08T00:10:51;49.63;;;27.30;;
9459;SDS011;4768;42.664;23.240;2022-12-08T00:13:18;50.37;;;27.40;;
9459;SDS011;4768;42.664;23.240;2022-12-08T00:15:46;52.27;;;27.17;;
9459;SDS011;4768;42.664;23.240;2022-12-08T00:18:13;109.57;;;57.80;;
9459;SDS011;4768;42.664;23.240;2022-12-08T00:20:40;164.20;;;84.87;;
9459;SDS011;4768;42.664;23.240;2022-12-08T00:23:06;51.83;;;28.87;;
9459;SDS011;4768;42.664;23.240;2022-12-08T00:25:34;55.63;;;25.50;;
9459;SDS011;4768;42.664;23.240;2022-12-08T00:28:01;47.03;;;27.03;;
9459;SDS011;4768;42.664;23.240;2022-12-08T00:30:28;48.43;;;26.47;;
9459;SDS011;4768;42.664;23.240;2022-12-08T00:32:56;48.50;;;26.83;;
9459;SDS011;4768;42.664;23.240;2022-12-08T00:35:23;50.67;;;27.27;;
9459;SDS011;4768;42.664;23.240;2022-12-08T00:37:49;45.93;;;24.63;;
9459;SDS011;4768;42.664;23.240;2022-12-08T00:40:16;49.50;;;25.50;;
9459;SDS011;4768;42.664;23.240;2022-12-08T00:42:43;44.30;;;24.00;;
9459;SDS011;4768;42.664;23.240;2022-12-08T00:45:10;47.90;;;25.40;;
9459;SDS011;4768;42.664;23.240;2022-12-08T00:47:37;41.73;;;24.53;;
9459;SDS011;4768;42.664;23.240;2022-12-08T00:50:06;51.37;;;25.40;;
9459;SDS011;4768;42.664;23.240;2022-12-08T00:52:33;45.20;;;23.73;;
9459;SDS011;4768;42.664;23.240;2022-12-08T00:55:00;43.87;;;23.50;;
9459;SDS011;4768;42.664;23.240;2022-12-08T00:57:26;43.60;;;22.93;;
9459;SDS011;4768;42.664;23.240;2022-12-08T00:59:53;52.07;;;25.43;;
9459;SDS011;4768;42.664;23.240;2022-12-08T01:02:20;43.00;;;23.03;;
9459;SDS011;4768;42.664;23.240;2022-12-08T01:04:46;64.17;;;31.37;;
9459;SDS011;4768;42.664;23.240;2022-12-08T01:07:15;67.80;;;33.00;;
9459;SDS011;4768;42.664;23.240;2022-12-08T01:09:41;56.23;;;27.20;;
9459;SDS011;4768;42.664;23.240;2022-12-08T01:12:08;60.90;;;29.03;;
9459;SDS011;4768;42.664;23.240;2022-12-08T01:14:35;49.90;;;24.27;;
9459;SDS011;4768;42.664;23.240;2022-12-08T01:17:02;47.83;;;24.27;;
9459;SDS011;4768;42.664;23.240;2022-12-08T01:19:29;49.97;;;24.47;;
9459;SDS011;4768;42.664;23.240;2022-12-08T01:21:55;48.33;;;24.00;;
9459;SDS011;4768;42.664;23.240;2022-12-08T01:24:24;65.50;;;32.97;;
9459;SDS011;4768;42.664;23.240;2022-12-08T01:26:50;57.97;;;29.20;;
9459;SDS011;4768;42.664;23.240;2022-12-08T01:29:17;48.00;;;25.57;;
9459;SDS011;4768;42.664;23.240;2022-12-08T01:31:44;49.50;;;26.87;;
9459;SDS011;4768;42.664;23.240;2022-12-08T01:34:11;52.03;;;26.13;;
9459;SDS011;4768;42.664;23.240;2022-12-08T01:36:38;47.93;;;24.07;;
9459;SDS011;4768;42.664;23.240;2022-12-08T01:39:06;52.57;;;24.33;;
9459;SDS011;4768;42.664;23.240;2022-12-08T01:41:36;49.20;;;24.57;;
9459;SDS011;4768;42.664;23.240;2022-12-08T01:44:46;47.10;;;24.67;;
9459;SDS011;4768;42.664;23.240;2022-12-08T01:47:08;49.97;;;27.97;;
9459;SDS011;4768;42.664;23.240;2022-12-08T01:49:35;45.47;;;24.47;;
9459;SDS011;4768;42.664;23.240;2022-12-08T01:52:04;44.37;;;23.70;;
9459;SDS011;4768;42.664;23.240;2022-12-08T01:54:38;50.47;;;27.57;;
9459;SDS011;4768;42.664;23.240;2022-12-08T01:57:13;45.43;;;24.07;;
9459;SDS011;4768;42.664;23.240;2022-12-08T01:59:45;48.50;;;25.53;;
9459;SDS011;4768;42.664;23.240;2022-12-08T02:02:17;48.53;;;24.03;;
9459;SDS011;4768;42.664;23.240;2022-12-08T02:04:44;46.33;;;23.03;;
9459;SDS011;4768;42.664;23.240;2022-12-08T02:07:11;51.67;;;23.77;;
9459;SDS011;4768;42.664;23.240;2022-12-08T02:09:40;47.47;;;23.43;;
9459;SDS011;4768;42.664;23.240;2022-12-08T02:12:07;46.17;;;23.20;;
9459;SDS011;4768;42.664;23.240;2022-12-08T02:14:36;42.67;;;22.60;;
9459;SDS011;4768;42.664;23.240;2022-12-08T02:17:05;42.47;;;22.90;;
9459;SDS011;4768;42.664;23.240;2022-12-08T02:22:45;41.90;;;21.17;;
9459;SDS011;4768;42.664;23.240;2022-12-08T02:25:21;41.53;;;20.83;;
9459;SDS011;4768;42.664;23.240;2022-12-08T02:27:58;42.53;;;21.10;;
9459;SDS011;4768;42.664;23.240;2022-12-08T02:30:38;46.87;;;21.70;;
9459;SDS011;4768;42.664;23.240;2022-12-08T02:36:23;43.10;;;20.93;;
9459;SDS011;4768;42.664;23.240;2022-12-08T02:38:55;41.00;;;20.40;;
9459;SDS011;4768;42.664;23.240;2022-12-08T02:41:30;49.47;;;23.10;;
9459;SDS011;4768;42.664;23.240;2022-12-08T02:44:05;42.23;;;21.37;;
9459;SDS011;4768;42.664;23.240;2022-12-08T02:46:39;37.90;;;19.73;;
9459;SDS011;4768;42.664;23.240;2022-12-08T02:49:09;43.60;;;20.77;;
9459;SDS011;4768;42.664;23.240;2022-12-08T02:51:39;43.17;;;20.97;;
9459;SDS011;4768;42.664;23.240;2022-12-08T02:54:05;41.83;;;19.53;;
9459;SDS011;4768;42.664;23.240;2022-12-08T02:56:40;41.87;;;20.03;;
9459;SDS011;4768;42.664;23.240;2022-12-08T02:59:24;40.10;;;20.03;;
9459;SDS011;4768;42.664;23.240;2022-12-08T03:02:02;38.03;;;18.80;;
9459;SDS011;4768;42.664;23.240;2022-12-08T03:04:52;37.70;;;17.20;;
9459;SDS011;4768;42.664;23.240;2022-12-08T03:07:27;37.47;;;17.87;;
9459;SDS011;4768;42.664;23.240;2022-12-08T03:10:03;33.53;;;16.90;;
9459;SDS011;4768;42.664;23.240;2022-12-08T03:12:36;39.57;;;19.53;;
9459;SDS011;4768;42.664;23.240;2022-12-08T03:15:08;37.87;;;18.63;;
9459;SDS011;4768;42.664;23.240;2022-12-08T03:17:39;40.90;;;18.80;;
9459;SDS011;4768;42.664;23.240;2022-12-08T03:20:12;35.83;;;18.57;;
9459;SDS011;4768;42.664;23.240;2022-12-08T03:22:41;34.67;;;17.93;;
9459;SDS011;4768;42.664;23.240;2022-12-08T03:25:09;41.57;;;18.73;;
9459;SDS011;4768;42.664;23.240;2022-12-08T03:27:39;39.60;;;17.93;;
9459;SDS011;4768;42.664;23.240;2022-12-08T03:30:07;32.70;;;18.00;;
9459;SDS011;4768;42.664;23.240;2022-12-08T03:32:36;39.37;;;18.23;;
9459;SDS011;4768;42.664;23.240;2022-12-08T03:35:06;37.27;;;17.83;;
9459;SDS011;4768;42.664;23.240;2022-12-08T03:37:39;37.87;;;17.63;;
9459;SDS011;4768;42.664;23.240;2022-12-08T03:40:07;30.97;;;16.53;;
9459;SDS011;4768;42.664;23.240;2022-12-08T03:42:36;38.90;;;19.23;;
9459;SDS011;4768;42.664;23.240;2022-12-08T03:45:02;34.70;;;17.47;;
9459;SDS011;4768;42.664;23.240;2022-12-08T03:47:30;42.03;;;20.00;;
9459;SDS011;4768;42.664;23.240;2022-12-08T03:49:57;37.33;;;18.77;;
9459;SDS011;4768;42.664;23.240;2022-12-08T03:52:23;40.37;;;19.47;;
9459;SDS011;4768;42.664;23.240;2022-12-08T03:54:51;40.70;;;20.17;;
9459;SDS011;4768;42.664;23.240;2022-12-08T03:57:18;41.33;;;19.17;;
9459;SDS011;4768;42.664;23.240;2022-12-08T03:59:45;40.47;;;18.70;;
9459;SDS011;4768;42.664;23.240;2022-12-08T04:02:12;37.37;;;18.40;;
9459;SDS011;4768;42.664;23.240;2022-12-08T04:04:39;38.93;;;19.83;;
9459;SDS011;4768;42.664;23.240;2022-12-08T04:07:05;41.47;;;19.57;;
9459;SDS011;4768;42.664;23.240;2022-12-08T04:09:32;38.00;;;19.07;;
9459;SDS011;4768;42.664;23.240;2022-12-08T04:12:00;37.80;;;18.37;;
9459;SDS011;4768;42.664;23.240;2022-12-08T04:14:27;41.83;;;19.47;;
9459;SDS011;4768;42.664;23.240;2022-12-08T04:16:54;46.60;;;21.87;;
9459;SDS011;4768;42.664;23.240;2022-12-08T04:19:20;42.80;;;21.40;;
9459;SDS011;4768;42.664;23.240;2022-12-08T04:21:47;42.07;;;22.17;;
9459;SDS011;4768;42.664;23.240;2022-12-08T04:24:14;37.60;;;18.70;;
9459;SDS011;4768;42.664;23.240;2022-12-08T04:26:40;39.30;;;18.83;;
9459;SDS011;4768;42.664;23.240;2022-12-08T04:29:08;38.57;;;20.70;;
9459;SDS011;4768;42.664;23.240;2022-12-08T04:31:35;46.03;;;23.90;;
9459;SDS011;4768;42.664;23.240;2022-12-08T04:34:02;44.30;;;22.10;;
9459;SDS011;4768;42.664;23.240;2022-12-08T04:36:29;40.27;;;20.10;;
9459;SDS011;4768;42.664;23.240;2022-12-08T04:38:56;40.87;;;20.20;;
9459;SDS011;4768;42.664;23.240;2022-12-08T04:41:22;42.53;;;20.57;;
9459;SDS011;4768;42.664;23.240;2022-12-08T04:43:49;40.17;;;20.43;;
9459;SDS011;4768;42.664;23.240;2022-12-08T04:46:17;39.63;;;20.20;;
9459;SDS011;4768;42.664;23.240;2022-12-08T04:48:44;33.90;;;19.23;;
9459;SDS011;4768;42.664;23.240;2022-12-08T04:51:12;33.53;;;18.90;;
9459;SDS011;4768;42.664;23.240;2022-12-08T04:53:41;40.30;;;20.47;;
9459;SDS011;4768;42.664;23.240;2022-12-08T04:56:10;35.27;;;18.93;;
9459;SDS011;4768;42.664;23.240;2022-12-08T04:58:37;37.00;;;19.50;;
9459;SDS011;4768;42.664;23.240;2022-12-08T05:01:04;42.53;;;20.63;;
9459;SDS011;4768;42.664;23.240;2022-12-08T05:03:32;34.10;;;18.47;;
9459;SDS011;4768;42.664;23.240;2022-12-08T05:05:59;44.20;;;24.57;;
9459;SDS011;4768;42.664;23.240;2022-12-08T05:08:26;47.77;;;28.57;;
9459;SDS011;4768;42.664;23.240;2022-12-08T05:10:53;47.17;;;25.27;;
9459;SDS011;4768;42.664;23.240;2022-12-08T05:13:26;46.03;;;23.77;;
9459;SDS011;4768;42.664;23.240;2022-12-08T05:15:53;45.27;;;23.57;;
9459;SDS011;4768;42.664;23.240;2022-12-08T05:18:19;39.37;;;23.70;;
9459;SDS011;4768;42.664;23.240;2022-12-08T05:20:47;42.60;;;24.47;;
9459;SDS011;4768;42.664;23.240;2022-12-08T05:23:14;41.73;;;23.80;;
9459;SDS011;4768;42.664;23.240;2022-12-08T05:25:41;41.40;;;25.33;;
9459;SDS011;4768;42.664;23.240;2022-12-08T05:28:08;47.50;;;25.27;;
9459;SDS011;4768;42.664;23.240;2022-12-08T05:30:34;48.27;;;25.77;;
9459;SDS011;4768;42.664;23.240;2022-12-08T05:33:01;40.80;;;20.83;;
9459;SDS011;4768;42.664;23.240;2022-12-08T05:35:28;46.70;;;24.17;;
9459;SDS011;4768;42.664;23.240;2022-12-08T05:37:56;50.83;;;26.33;;
9459;SDS011;4768;42.664;23.240;2022-12-08T05:40:23;43.77;;;23.90;;
9459;SDS011;4768;42.664;23.240;2022-12-08T05:42:49;43.07;;;25.27;;
9459;SDS011;4768;42.664;23.240;2022-12-08T05:45:17;56.93;;;29.67;;
9459;SDS011;4768;42.664;23.240;2022-12-08T05:47:44;57.03;;;27.53;;
9459;SDS011;4768;42.664;23.240;2022-12-08T05:50:10;64.37;;;35.90;;
9459;SDS011;4768;42.664;23.240;2022-12-08T05:52:37;69.87;;;34.70;;
9459;SDS011;4768;42.664;23.240;2022-12-08T05:55:06;64.93;;;35.50;;
9459;SDS011;4768;42.664;23.240;2022-12-08T05:57:33;62.97;;;34.83;;
9459;SDS011;4768;42.664;23.240;2022-12-08T05:59:59;59.40;;;32.47;;
9459;SDS011;4768;42.664;23.240;2022-12-08T06:02:26;66.23;;;31.27;;
9459;SDS011;4768;42.664;23.240;2022-12-08T06:04:53;53.73;;;31.90;;
9459;SDS011;4768;42.664;23.240;2022-12-08T06:07:19;59.30;;;30.90;;
9459;SDS011;4768;42.664;23.240;2022-12-08T06:09:46;59.00;;;34.73;;
9459;SDS011;4768;42.664;23.240;2022-12-08T06:12:14;61.00;;;32.00;;
9459;SDS011;4768;42.664;23.240;2022-12-08T06:14:41;108.30;;;63.03;;
9459;SDS011;4768;42.664;23.240;2022-12-08T06:17:08;56.50;;;32.10;;
9459;SDS011;4768;42.664;23.240;2022-12-08T06:19:34;56.70;;;30.23;;
9459;SDS011;4768;42.664;23.240;2022-12-08T06:22:01;65.27;;;32.50;;
9459;SDS011;4768;42.664;23.240;2022-12-08T06:24:28;61.17;;;33.53;;
9459;SDS011;4768;42.664;23.240;2022-12-08T06:26:55;66.30;;;34.80;;
9459;SDS011;4768;42.664;23.240;2022-12-08T06:29:23;69.93;;;36.80;;
9459;SDS011;4768;42.664;23.240;2022-12-08T06:31:50;58.90;;;29.67;;
9459;SDS011;4768;42.664;23.240;2022-12-08T06:34:17;73.13;;;32.80;;
9459;SDS011;4768;42.664;23.240;2022-12-08T06:36:44;60.53;;;33.57;;
9459;SDS011;4768;42.664;23.240;2022-12-08T06:39:10;70.43;;;33.33;;
9459;SDS011;4768;42.664;23.240;2022-12-08T06:41:37;64.73;;;31.57;;
9459;SDS011;4768;42.664;23.240;2022-12-08T06:44:17;66.03;;;31.00;;
9459;SDS011;4768;42.664;23.240;2022-12-08T06:46:46;66.37;;;32.77;;
9459;SDS011;4768;42.664;23.240;2022-12-08T06:49:12;69.70;;;32.83;;
9459;SDS011;4768;42.664;23.240;2022-12-08T06:51:39;58.07;;;30.33;;
9459;SDS011;4768;42.664;23.240;2022-12-08T06:54:06;75.23;;;33.80;;
9459;SDS011;4768;42.664;23.240;2022-12-08T06:56:33;62.70;;;31.70;;
9459;SDS011;4768;42.664;23.240;2022-12-08T06:58:59;57.03;;;28.40;;
9459;SDS011;4768;42.664;23.240;2022-12-08T07:01:26;53.57;;;28.70;;
9459;SDS011;4768;42.664;23.240;2022-12-08T07:03:54;57.53;;;28.70;;
9459;SDS011;4768;42.664;23.240;2022-12-08T07:06:21;54.20;;;29.13;;
9459;SDS011;4768;42.664;23.240;2022-12-08T07:08:49;61.90;;;34.17;;
9459;SDS011;4768;42.664;23.240;2022-12-08T07:11:16;57.90;;;29.50;;
9459;SDS011;4768;42.664;23.240;2022-12-08T07:13:44;88.27;;;44.03;;
9459;SDS011;4768;42.664;23.240;2022-12-08T07:16:10;75.07;;;37.33;;
9459;SDS011;4768;42.664;23.240;2022-12-08T07:18:38;71.07;;;37.70;;
9459;SDS011;4768;42.664;23.240;2022-12-08T07:21:08;75.37;;;38.30;;
9459;SDS011;4768;42.664;23.240;2022-12-08T07:23:36;69.63;;;38.07;;
9459;SDS011;4768;42.664;23.240;2022-12-08T07:26:04;79.83;;;43.60;;
9459;SDS011;4768;42.664;23.240;2022-12-08T07:28:32;77.00;;;43.63;;
9459;SDS011;4768;42.664;23.240;2022-12-08T07:30:59;124.97;;;74.87;;
9459;SDS011;4768;42.664;23.240;2022-12-08T07:33:27;79.50;;;43.93;;
9459;SDS011;4768;42.664;23.240;2022-12-08T07:35:54;98.93;;;60.27;;
9459;SDS011;4768;42.664;23.240;2022-12-08T07:38:23;82.07;;;46.17;;
9459;SDS011;4768;42.664;23.240;2022-12-08T07:40:50;83.57;;;44.97;;
9459;SDS011;4768;42.664;23.240;2022-12-08T07:43:17;78.93;;;44.67;;
9459;SDS011;4768;42.664;23.240;2022-12-08T07:45:44;72.50;;;43.60;;
9459;SDS011;4768;42.664;23.240;2022-12-08T07:48:11;81.27;;;44.83;;
9459;SDS011;4768;42.664;23.240;2022-12-08T07:50:38;85.63;;;46.83;;
9459;SDS011;4768;42.664;23.240;2022-12-08T07:53:05;81.00;;;47.37;;
9459;SDS011;4768;42.664;23.240;2022-12-08T07:55:33;79.27;;;44.33;;
9459;SDS011;4768;42.664;23.240;2022-12-08T07:58:04;78.40;;;44.07;;
9459;SDS011;4768;42.664;23.240;2022-12-08T08:00:30;79.23;;;45.97;;
9459;SDS011;4768;42.664;23.240;2022-12-08T08:02:57;85.50;;;46.17;;
9459;SDS011;4768;42.664;23.240;2022-12-08T08:05:24;81.53;;;42.97;;
9459;SDS011;4768;42.664;23.240;2022-12-08T08:07:50;76.73;;;43.50;;
9459;SDS011;4768;42.664;23.240;2022-12-08T08:10:17;79.20;;;44.37;;
9459;SDS011;4768;42.664;23.240;2022-12-08T08:12:45;84.20;;;43.70;;
9459;SDS011;4768;42.664;23.240;2022-12-08T08:15:12;75.03;;;42.37;;
9459;SDS011;4768;42.664;23.240;2022-12-08T08:17:39;75.47;;;43.23;;
9459;SDS011;4768;42.664;23.240;2022-12-08T08:20:06;81.10;;;42.73;;
9459;SDS011;4768;42.664;23.240;2022-12-08T08:22:34;64.73;;;38.43;;
9459;SDS011;4768;42.664;23.240;2022-12-08T08:25:01;61.63;;;34.40;;
9459;SDS011;4768;42.664;23.240;2022-12-08T08:27:28;59.23;;;33.77;;
9459;SDS011;4768;42.664;23.240;2022-12-08T08:29:56;50.20;;;30.00;;
9459;SDS011;4768;42.664;23.240;2022-12-08T08:32:22;56.80;;;31.10;;
9459;SDS011;4768;42.664;23.240;2022-12-08T08:34:49;45.43;;;26.57;;
9459;SDS011;4768;42.664;23.240;2022-12-08T08:37:16;45.80;;;28.33;;
9459;SDS011;4768;42.664;23.240;2022-12-08T08:39:43;52.33;;;30.60;;
9459;SDS011;4768;42.664;23.240;2022-12-08T08:42:10;54.87;;;34.10;;
9459;SDS011;4768;42.664;23.240;2022-12-08T08:44:36;46.10;;;30.10;;
9459;SDS011;4768;42.664;23.240;2022-12-08T08:47:05;43.07;;;25.93;;
9459;SDS011;4768;42.664;23.240;2022-12-08T08:49:32;34.73;;;22.97;;
9459;SDS011;4768;42.664;23.240;2022-12-08T08:51:58;42.30;;;26.40;;
9459;SDS011;4768;42.664;23.240;2022-12-08T08:54:27;37.37;;;24.80;;
9459;SDS011;4768;42.664;23.240;2022-12-08T08:56:55;43.60;;;28.00;;
9459;SDS011;4768;42.664;23.240;2022-12-08T08:59:22;46.67;;;25.53;;
9459;SDS011;4768;42.664;23.240;2022-12-08T09:01:49;36.73;;;24.90;;
9459;SDS011;4768;42.664;23.240;2022-12-08T09:04:19;45.17;;;27.67;;
9459;SDS011;4768;42.664;23.240;2022-12-08T09:06:47;48.53;;;28.97;;
9459;SDS011;4768;42.664;23.240;2022-12-08T09:09:14;32.63;;;21.13;;
9459;SDS011;4768;42.664;23.240;2022-12-08T09:11:41;46.77;;;28.90;;
9459;SDS011;4768;42.664;23.240;2022-12-08T09:14:09;49.50;;;31.17;;
9459;SDS011;4768;42.664;23.240;2022-12-08T09:16:36;45.53;;;28.67;;
9459;SDS011;4768;42.664;23.240;2022-12-08T09:19:03;43.13;;;26.93;;
9459;SDS011;4768;42.664;23.240;2022-12-08T09:21:31;46.23;;;27.37;;
9459;SDS011;4768;42.664;23.240;2022-12-08T09:23:58;45.63;;;27.63;;
9459;SDS011;4768;42.664;23.240;2022-12-08T09:26:26;47.13;;;27.87;;
9459;SDS011;4768;42.664;23.240;2022-12-08T09:28:54;58.43;;;33.23;;
9459;SDS011;4768;42.664;23.240;2022-12-08T09:31:22;49.57;;;30.50;;
9459;SDS011;4768;42.664;23.240;2022-12-08T09:33:49;47.63;;;31.17;;
9459;SDS011;4768;42.664;23.240;2022-12-08T09:36:16;39.73;;;25.63;;
9459;SDS011;4768;42.664;23.240;2022-12-08T09:38:44;45.33;;;28.47;;
9459;SDS011;4768;42.664;23.240;2022-12-08T09:41:13;48.27;;;30.63;;
9459;SDS011;4768;42.664;23.240;2022-12-08T09:43:47;46.07;;;27.87;;
9459;SDS011;4768;42.664;23.240;2022-12-08T09:46:21;50.50;;;30.77;;
9459;SDS011;4768;42.664;23.240;2022-12-08T09:48:52;41.70;;;27.63;;
9459;SDS011;4768;42.664;23.240;2022-12-08T09:51:22;42.87;;;27.07;;
9459;SDS011;4768;42.664;23.240;2022-12-08T09:53:52;47.77;;;30.27;;
9459;SDS011;4768;42.664;23.240;2022-12-08T09:56:23;58.67;;;32.20;;
9459;SDS011;4768;42.664;23.240;2022-12-08T09:58:55;56.13;;;31.33;;
9459;SDS011;4768;42.664;23.240;2022-12-08T10:01:25;52.03;;;32.63;;
9459;SDS011;4768;42.664;23.240;2022-12-08T10:03:54;54.57;;;32.87;;
9459;SDS011;4768;42.664;23.240;2022-12-08T10:06:23;51.17;;;30.93;;
9459;SDS011;4768;42.664;23.240;2022-12-08T10:09:00;52.20;;;33.37;;
9459;SDS011;4768;42.664;23.240;2022-12-08T10:11:48;52.37;;;33.70;;
9459;SDS011;4768;42.664;23.240;2022-12-08T10:14:20;53.13;;;29.33;;
9459;SDS011;4768;42.664;23.240;2022-12-08T10:16:54;49.23;;;30.73;;
9459;SDS011;4768;42.664;23.240;2022-12-08T10:19:26;53.40;;;33.33;;
9459;SDS011;4768;42.664;23.240;2022-12-08T10:21:54;61.87;;;36.10;;
9459;SDS011;4768;42.664;23.240;2022-12-08T10:24:25;53.00;;;33.10;;
9459;SDS011;4768;42.664;23.240;2022-12-08T10:26:57;54.43;;;30.97;;
9459;SDS011;4768;42.664;23.240;2022-12-08T10:29:24;41.93;;;27.37;;
9459;SDS011;4768;42.664;23.240;2022-12-08T10:31:51;45.00;;;28.53;;
9459;SDS011;4768;42.664;23.240;2022-12-08T10:34:18;46.17;;;28.03;;
9459;SDS011;4768;42.664;23.240;2022-12-08T10:36:48;44.53;;;26.00;;
9459;SDS011;4768;42.664;23.240;2022-12-08T10:39:33;39.03;;;25.33;;
9459;SDS011;4768;42.664;23.240;2022-12-08T10:42:06;48.37;;;28.30;;
9459;SDS011;4768;42.664;23.240;2022-12-08T10:44:37;37.80;;;24.27;;
9459;SDS011;4768;42.664;23.240;2022-12-08T10:47:19;39.80;;;24.17;;
9459;SDS011;4768;42.664;23.240;2022-12-08T10:49:47;34.53;;;23.73;;
9459;SDS011;4768;42.664;23.240;2022-12-08T10:52:36;41.40;;;25.20;;
9459;SDS011;4768;42.664;23.240;2022-12-08T10:55:11;38.20;;;23.67;;
9459;SDS011;4768;42.664;23.240;2022-12-08T10:57:40;37.17;;;24.07;;
9459;SDS011;4768;42.664;23.240;2022-12-08T11:00:09;39.50;;;26.47;;
9459;SDS011;4768;42.664;23.240;2022-12-08T11:02:48;38.90;;;25.17;;
9459;SDS011;4768;42.664;23.240;2022-12-08T11:05:18;44.07;;;23.83;;
9459;SDS011;4768;42.664;23.240;2022-12-08T11:07:46;37.37;;;24.83;;
9459;SDS011;4768;42.664;23.240;2022-12-08T11:10:18;38.77;;;24.47;;
9459;SDS011;4768;42.664;23.240;2022-12-08T11:12:52;33.57;;;22.00;;
9459;SDS011;4768;42.664;23.240;2022-12-08T11:15:19;31.83;;;21.50;;
9459;SDS011;4768;42.664;23.240;2022-12-08T11:17:46;29.03;;;19.83;;
9459;SDS011;4768;42.664;23.240;2022-12-08T11:20:27;35.50;;;19.63;;
9459;SDS011;4768;42.664;23.240;2022-12-08T11:23:02;29.27;;;16.33;;
9459;SDS011;4768;42.664;23.240;2022-12-08T11:25:30;32.13;;;18.97;;
9459;SDS011;4768;42.664;23.240;2022-12-08T11:27:58;25.27;;;16.90;;
9459;SDS011;4768;42.664;23.240;2022-12-08T11:30:26;26.93;;;14.77;;
9459;SDS011;4768;42.664;23.240;2022-12-08T11:32:56;20.37;;;14.10;;
9459;SDS011;4768;42.664;23.240;2022-12-08T11:35:27;26.93;;;15.53;;
9459;SDS011;4768;42.664;23.240;2022-12-08T11:38:01;25.13;;;15.20;;
9459;SDS011;4768;42.664;23.240;2022-12-08T11:40:33;22.20;;;14.27;;
9459;SDS011;4768;42.664;23.240;2022-12-08T11:43:05;27.63;;;16.10;;
9459;SDS011;4768;42.664;23.240;2022-12-08T11:45:39;24.13;;;14.63;;
9459;SDS011;4768;42.664;23.240;2022-12-08T11:48:09;26.77;;;12.73;;
9459;SDS011;4768;42.664;23.240;2022-12-08T11:50:42;21.97;;;12.80;;
9459;SDS011;4768;42.664;23.240;2022-12-08T11:53:17;17.30;;;12.50;;
9459;SDS011;4768;42.664;23.240;2022-12-08T11:55:53;15.87;;;11.73;;
9459;SDS011;4768;42.664;23.240;2022-12-08T11:58:23;18.57;;;12.20;;
9459;SDS011;4768;42.664;23.240;2022-12-08T12:00:54;17.13;;;12.63;;
9459;SDS011;4768;42.664;23.240;2022-12-08T12:03:23;16.33;;;11.07;;
9459;SDS011;4768;42.664;23.240;2022-12-08T12:06:00;22.37;;;10.70;;
9459;SDS011;4768;42.664;23.240;2022-12-08T12:08:41;16.43;;;10.30;;
9459;SDS011;4768;42.664;23.240;2022-12-08T12:11:18;18.30;;;10.40;;
9459;SDS011;4768;42.664;23.240;2022-12-08T12:14:13;16.97;;;10.53;;
9459;SDS011;4768;42.664;23.240;2022-12-08T12:16:57;17.23;;;10.77;;
9459;SDS011;4768;42.664;23.240;2022-12-08T12:19:27;27.10;;;15.00;;
9459;SDS011;4768;42.664;23.240;2022-12-08T12:21:56;34.53;;;17.43;;
9459;SDS011;4768;42.664;23.240;2022-12-08T12:24:23;26.80;;;15.30;;
9459;SDS011;4768;42.664;23.240;2022-12-08T12:26:56;35.17;;;16.90;;
9459;SDS011;4768;42.664;23.240;2022-12-08T12:29:27;25.33;;;15.93;;
9459;SDS011;4768;42.664;23.240;2022-12-08T12:31:57;25.00;;;16.43;;
9459;SDS011;4768;42.664;23.240;2022-12-08T12:34:28;30.47;;;18.67;;
9459;SDS011;4768;42.664;23.240;2022-12-08T12:36:58;28.30;;;16.27;;
9459;SDS011;4768;42.664;23.240;2022-12-08T12:39:34;34.33;;;20.93;;
9459;SDS011;4768;42.664;23.240;2022-12-08T12:50:46;25.13;;;13.63;;
9459;SDS011;4768;42.664;23.240;2022-12-08T12:56:12;24.93;;;15.60;;
9459;SDS011;4768;42.664;23.240;2022-12-08T13:02:17;21.17;;;12.80;;
9459;SDS011;4768;42.664;23.240;2022-12-08T13:04:51;25.00;;;13.40;;
9459;SDS011;4768;42.664;23.240;2022-12-08T13:07:22;25.43;;;13.07;;
9459;SDS011;4768;42.664;23.240;2022-12-08T13:09:54;20.97;;;13.97;;
9459;SDS011;4768;42.664;23.240;2022-12-08T13:12:23;20.80;;;14.23;;
9459;SDS011;4768;42.664;23.240;2022-12-08T13:14:54;25.13;;;13.67;;
9459;SDS011;4768;42.664;23.240;2022-12-08T13:17:28;36.23;;;21.67;;
9459;SDS011;4768;42.664;23.240;2022-12-08T13:19:57;22.47;;;14.20;;
9459;SDS011;4768;42.664;23.240;2022-12-08T13:28:17;23.83;;;13.80;;
9459;SDS011;4768;42.664;23.240;2022-12-08T13:30:51;22.37;;;12.93;;
9459;SDS011;4768;42.664;23.240;2022-12-08T13:33:29;21.17;;;13.33;;
9459;SDS011;4768;42.664;23.240;2022-12-08T13:36:02;24.80;;;13.63;;
9459;SDS011;4768;42.664;23.240;2022-12-08T13:38:44;19.73;;;12.97;;
9459;SDS011;4768;42.664;23.240;2022-12-08T13:41:15;28.27;;;19.70;;
9459;SDS011;4768;42.664;23.240;2022-12-08T13:43:47;22.77;;;14.47;;
9459;SDS011;4768;42.664;23.240;2022-12-08T13:46:21;99.70;;;20.77;;
9459;SDS011;4768;42.664;23.240;2022-12-08T13:48:56;24.43;;;15.40;;
9459;SDS011;4768;42.664;23.240;2022-12-08T13:51:26;25.13;;;15.40;;
9459;SDS011;4768;42.664;23.240;2022-12-08T13:53:59;23.67;;;12.63;;
9459;SDS011;4768;42.664;23.240;2022-12-08T13:56:33;17.77;;;11.90;;
9459;SDS011;4768;42.664;23.240;2022-12-08T13:59:05;27.73;;;14.00;;
9459;SDS011;4768;42.664;23.240;2022-12-08T14:01:37;30.43;;;13.50;;
9459;SDS011;4768;42.664;23.240;2022-12-08T14:04:12;22.53;;;13.23;;
9459;SDS011;4768;42.664;23.240;2022-12-08T14:06:42;41.80;;;13.80;;
9459;SDS011;4768;42.664;23.240;2022-12-08T14:09:12;27.73;;;12.57;;
9459;SDS011;4768;42.664;23.240;2022-12-08T14:11:41;35.03;;;13.77;;
9459;SDS011;4768;42.664;23.240;2022-12-08T14:14:13;109.97;;;21.03;;
9459;SDS011;4768;42.664;23.240;2022-12-08T14:16:48;28.80;;;13.13;;
9459;SDS011;4768;42.664;23.240;2022-12-08T14:19:18;22.70;;;12.30;;
9459;SDS011;4768;42.664;23.240;2022-12-08T14:21:50;56.13;;;16.40;;
9459;SDS011;4768;42.664;23.240;2022-12-08T14:24:21;37.27;;;14.63;;
9459;SDS011;4768;42.664;23.240;2022-12-08T14:26:49;334.00;;;37.00;;
9459;SDS011;4768;42.664;23.240;2022-12-08T14:29:28;23.27;;;12.27;;
9459;SDS011;4768;42.664;23.240;2022-12-08T14:32:03;82.20;;;18.67;;
9459;SDS011;4768;42.664;23.240;2022-12-08T14:34:33;36.23;;;14.40;;
9459;SDS011;4768;42.664;23.240;2022-12-08T14:37:04;25.20;;;14.03;;
9459;SDS011;4768;42.664;23.240;2022-12-08T14:39:35;23.13;;;12.93;;
9459;SDS011;4768;42.664;23.240;2022-12-08T14:42:02;30.77;;;12.70;;
9459;SDS011;4768;42.664;23.240;2022-12-08T14:44:32;92.67;;;19.17;;
9459;SDS011;4768;42.664;23.240;2022-12-08T14:47:05;19.27;;;10.77;;
9459;SDS011;4768;42.664;23.240;2022-12-08T14:49:33;105.03;;;20.33;;
9459;SDS011;4768;42.664;23.240;2022-12-08T14:52:02;31.77;;;12.77;;
9459;SDS011;4768;42.664;23.240;2022-12-08T14:54:34;25.43;;;12.43;;
9459;SDS011;4768;42.664;23.240;2022-12-08T14:57:02;23.80;;;12.60;;
9459;SDS011;4768;42.664;23.240;2022-12-08T14:59:29;26.00;;;12.83;;
9459;SDS011;4768;42.664;23.240;2022-12-08T15:02:10;20.83;;;12.40;;
9459;SDS011;4768;42.664;23.240;2022-12-08T15:04:47;20.87;;;10.83;;
9459;SDS011;4768;42.664;23.240;2022-12-08T15:07:20;23.63;;;11.30;;
9459;SDS011;4768;42.664;23.240;2022-12-08T15:09:49;20.73;;;12.40;;
9459;SDS011;4768;42.664;23.240;2022-12-08T15:12:34;40.77;;;21.70;;
9459;SDS011;4768;42.664;23.240;2022-12-08T15:15:10;97.13;;;20.43;;